PASV/SVW METAR and TAF weather

Enter ICAO airport designator
Station Type Date Time Source
PASV METAR 2023/09/28 18:55 UTC NOAA

PASV 281855Z AUTO 00000KT 10SM SCT110 01/M06 A2995 RMK AO2 SLP163 T00061062


Station Type Date Time Source
PASV Decoded METAR 2023/09/28 18:55 UTC NOAA

Sparrevohn Airways Facilities Sector, AK, United States (PASV) 61-06N 155-34W
Sep 28, 2023 - 02:55 PM EDT / 2023.09.28 1855 UTC
Wind: Calm:0
Visibility: 10 mile(s):0
Sky conditions: partly cloudy
Temperature: 33.1 F (0.6 C)
Dew Point: 20.8 F (-6.2 C)
Relative Humidity: 60%
Pressure (altimeter): 29.95 in. Hg (1014 hPa)
ob: PASV 281855Z AUTO 00000KT 10SM SCT110 01/M06 A2995 RMK AO2 SLP163 T00061062
cycle: 19

Station Type Date Time Source
PASV TAF 2012/01/12 14:57 UTC NOAA

TAF
AMD PASV 1214/1320 33010G15KT 4800 -SN BLSN SCT003 SCT110 QNH2984INS
BECMG 1221/1222 VRB06KT 9999 NSW FEW010 SCT110 QNH3000INS LIMITED METWATCH TM25/1300Z TM37/1315Z
AMD 121453

Example: see airport list